Time;durP1;ratioP1;P1;durP2;ratioP2;P2;SDS_P1;SDS_P2;PMS_P1;PMS_P2;Temp;Humidity;BMP_temperature;BMP_pressure;BME280_temperature;BME280_humidity;BME280_pressure;Samples;Min_cycle;Max_cycle;Signal;HPM_P1;HPM_P2
2022/08/09 00:01:49;;;;;;;4.50;2.35;;;17.30;99.60;;;;;;5052343;28;20052;-66
2022/08/09 00:04:17;;;;;;;3.22;2.33;;;17.30;99.00;;;;;;5052357;28;20036;-67
2022/08/09 00:06:43;;;;;;;5.50;2.00;;;17.40;99.90;;;;;;5052491;28;20104;-67
2022/08/09 00:09:09;;;;;;;3.78;2.20;;;17.40;99.90;;;;;;5050046;28;20091;-67
2022/08/09 00:11:36;;;;;;;4.80;2.63;;;18.00;99.90;;;;;;5052593;28;20043;-66
2022/08/09 00:14:02;;;;;;;5.63;3.00;;;17.50;99.90;;;;;;5052172;28;20108;-67
2022/08/09 00:16:28;;;;;;;5.95;3.15;;;17.40;99.90;;;;;;5051812;28;20069;-66
2022/08/09 00:18:53;;;;;;;4.10;2.22;;;17.40;99.90;;;;;;5051851;28;20459;-67
2022/08/09 00:21:19;;;;;;;5.45;2.22;;;17.30;99.90;;;;;;5052007;28;20120;-67
2022/08/09 00:23:45;;;;;;;2.63;1.90;;;17.30;99.90;;;;;;5052054;28;20072;-67
2022/08/09 00:26:11;;;;;;;6.30;2.30;;;17.10;99.90;;;;;;5051401;28;20037;-67
2022/08/09 00:28:37;;;;;;;5.15;2.50;;;17.20;99.90;;;;;;5051814;28;20048;-66
2022/08/09 00:31:03;;;;;;;4.50;2.53;;;17.10;99.90;;;;;;5051298;28;20535;-67
2022/08/09 00:33:29;;;;;;;2.88;2.40;;;18.30;99.90;;;;;;5051685;28;20082;-67
2022/08/09 00:35:54;;;;;;;3.75;2.08;;;17.00;99.90;;;;;;5051145;28;20065;-66
2022/08/09 00:38:20;;;;;;;3.80;2.38;;;17.10;99.90;;;;;;5050606;28;20115;-66
2022/08/09 00:40:46;;;;;;;4.82;2.10;;;17.00;99.90;;;;;;5048194;28;20381;-66
2022/08/09 00:43:12;;;;;;;3.33;2.67;;;17.80;99.90;;;;;;5049358;28;20425;-67
2022/08/09 00:45:37;;;;;;;7.05;3.10;;;17.00;99.90;;;;;;5051147;28;20031;-66
2022/08/09 00:48:05;;;;;;;4.05;2.58;;;16.90;99.90;;;;;;5049783;28;20120;-67
2022/08/09 00:50:31;;;;;;;4.22;2.67;;;16.90;99.90;;;;;;5049615;28;20083;-66
2022/08/09 00:52:57;;;;;;;6.18;2.47;;;18.90;99.90;;;;;;5050961;28;20056;-67
2022/08/09 00:55:22;;;;;;;4.45;2.67;;;16.90;99.90;;;;;;5054866;28;20028;-66
2022/08/09 00:57:48;;;;;;;3.55;2.10;;;16.80;99.90;;;;;;5060735;28;20067;-67
2022/08/09 01:00:14;;;;;;;4.47;3.00;;;16.90;99.90;;;;;;5048495;28;20136;-66
2022/08/09 01:02:47;;;;;;;5.68;2.90;;;16.80;99.90;;;;;;5051067;28;20107;-67
2022/08/09 01:05:36;;;;;;;8.60;2.80;;;16.80;99.90;;;;;;5050546;28;20048;-66
2022/08/09 01:08:25;;;;;;;3.65;2.50;;;16.70;99.90;;;;;;5040572;28;20082;-65
2022/08/09 01:11:02;;;;;;;3.00;2.53;;;16.70;99.90;;;;;;4988981;28;20030;-66
2022/08/09 01:13:49;;;;;;;3.30;2.55;;;16.70;99.90;;;;;;4987672;28;20076;-66
2022/08/09 01:16:19;;;;;;;5.53;2.63;;;16.60;99.90;;;;;;4988223;28;20513;-66
2022/08/09 01:18:47;;;;;;;5.57;2.83;;;16.50;99.90;;;;;;4989237;28;20022;-66
2022/08/09 01:21:37;;;;;;;2.63;2.38;;;16.60;99.90;;;;;;4985309;28;20527;-66
2022/08/09 01:24:33;;;;;;;4.20;3.25;;;16.60;99.90;;;;;;4985537;28;20030;-66
2022/08/09 01:27:06;;;;;;;4.97;2.70;;;16.60;99.90;;;;;;4980889;28;20034;-66
2022/08/09 01:29:42;;;;;;;4.70;3.00;;;16.60;99.90;;;;;;4989170;28;20050;-66
2022/08/09 01:32:10;;;;;;;3.38;3.08;;;16.50;99.90;;;;;;4989008;28;20026;-66
2022/08/09 01:34:37;;;;;;;5.32;2.75;;;16.50;99.90;;;;;;4988995;28;20439;-67
2022/08/09 01:37:05;;;;;;;6.22;3.15;;;16.50;99.90;;;;;;4988820;28;20058;-66
2022/08/09 01:39:34;;;;;;;7.88;4.55;;;16.50;99.90;;;;;;4987808;28;20582;-66
2022/08/09 01:42:03;;;;;;;3.20;2.65;;;16.30;99.90;;;;;;4974602;28;20124;-66
2022/08/09 01:44:30;;;;;;;4.75;3.20;;;16.30;99.90;;;;;;4988673;28;20535;-66
2022/08/09 01:46:57;;;;;;;6.10;3.28;;;16.30;99.90;;;;;;4995707;28;20062;-66
2022/08/09 01:49:24;;;;;;;3.80;3.50;;;16.30;99.90;;;;;;5049989;28;20029;-66
2022/08/09 01:51:55;;;;;;;6.15;3.20;;;16.20;99.90;;;;;;5050062;28;20052;-66
2022/08/09 01:54:31;;;;;;;3.60;3.33;;;16.30;99.90;;;;;;5049515;28;20028;-66
2022/08/09 01:57:01;;;;;;;5.07;3.53;;;16.20;99.90;;;;;;5048845;28;20027;-66
2022/08/09 01:59:30;;;;;;;6.85;3.50;;;16.10;99.90;;;;;;5049336;28;20104;-66
2022/08/09 02:01:56;;;;;;;5.43;4.43;;;16.10;99.90;;;;;;5047900;28;20059;-67
2022/08/09 02:04:24;;;;;;;5.65;3.88;;;16.00;99.90;;;;;;5049870;28;20028;-66
2022/08/09 02:07:14;;;;;;;5.82;5.22;;;16.10;99.90;;;;;;5049225;28;20055;-66
2022/08/09 02:09:51;;;;;;;9.05;4.72;;;17.70;99.90;;;;;;5047034;28;20541;-66
2022/08/09 02:12:20;;;;;;;4.65;3.88;;;16.10;99.90;;;;;;5045430;28;20439;-66
2022/08/09 02:14:49;;;;;;;6.40;4.30;;;15.90;99.90;;;;;;5050107;28;20025;-66
2022/08/09 02:17:16;;;;;;;4.97;3.88;;;16.00;99.90;;;;;;5049598;28;20104;-66
2022/08/09 02:19:43;;;;;;;4.88;3.67;;;;;;;;;;5049960;28;20028;-67
2022/08/09 02:22:16;;;;;;;4.90;3.90;;;15.80;99.90;;;;;;5049603;28;20346;-67
2022/08/09 02:24:45;;;;;;;6.28;4.45;;;15.90;99.90;;;;;;5050131;28;20092;-67
2022/08/09 02:27:12;;;;;;;8.18;4.78;;;17.10;99.90;;;;;;5048828;28;20009;-67
2022/08/09 02:29:44;;;;;;;5.15;3.97;;;15.80;99.90;;;;;;5049789;28;20043;-67
2022/08/09 02:32:11;;;;;;;5.05;4.28;;;15.90;99.90;;;;;;5049396;28;20025;-67
2022/08/09 02:34:38;;;;;;;6.65;5.18;;;15.80;99.90;;;;;;5049792;28;20174;-67
2022/08/09 02:37:10;;;;;;;5.30;4.65;;;16.00;99.90;;;;;;5049396;28;20024;-67
2022/08/09 02:39:40;;;;;;;7.10;3.70;;;15.90;99.90;;;;;;5048438;28;20029;-67
2022/08/09 02:42:11;;;;;;;6.00;4.00;;;15.90;99.90;;;;;;5049429;28;20075;-67
2022/08/09 02:44:41;;;;;;;5.53;4.15;;;15.80;99.90;;;;;;5049956;28;20024;-67
2022/08/09 02:47:10;;;;;;;6.80;4.38;;;15.80;99.90;;;;;;5048164;28;20097;-67
2022/08/09 02:49:42;;;;;;;7.85;3.72;;;15.80;99.90;;;;;;5049518;28;20040;-67
2022/08/09 02:52:12;;;;;;;7.32;4.03;;;15.80;99.90;;;;;;5049211;28;20021;-67
2022/08/09 02:54:39;;;;;;;11.32;4.20;;;15.70;99.90;;;;;;5042910;28;20021;-67
2022/08/09 02:57:08;;;;;;;4.72;3.55;;;15.70;99.90;;;;;;5047267;28;20474;-67
2022/08/09 02:59:35;;;;;;;7.13;4.40;;;15.70;99.90;;;;;;5048004;28;20025;-67
2022/08/09 03:02:03;;;;;;;7.35;4.43;;;15.70;99.90;;;;;;5048907;28;20502;-66
2022/08/09 03:04:30;;;;;;;4.68;3.75;;;15.40;99.90;;;;;;5049012;28;20032;-67
2022/08/09 03:06:58;;;;;;;5.43;3.70;;;15.70;99.90;;;;;;5036100;28;20049;-67
2022/08/09 03:09:24;;;;;;;4.55;3.70;;;15.80;99.90;;;;;;5048415;28;20174;-66
2022/08/09 03:11:50;;;;;;;9.82;4.20;;;15.70;99.90;;;;;;5053311;28;20087;-67
2022/08/09 03:14:18;;;;;;;8.65;4.25;;;15.80;99.90;;;;;;5053236;28;20029;-66
2022/08/09 03:16:45;;;;;;;6.22;4.22;;;15.80;99.90;;;;;;5053489;28;20492;-67
2022/08/09 03:19:11;;;;;;;4.97;4.25;;;15.70;99.90;;;;;;5052881;28;20021;-67
2022/08/09 03:21:37;;;;;;;11.02;4.50;;;15.70;99.90;;;;;;5051853;28;20331;-67
2022/08/09 03:24:03;;;;;;;5.45;4.25;;;15.70;99.90;;;;;;5052738;28;20036;-67
2022/08/09 03:26:31;;;;;;;6.03;4.93;;;15.20;99.90;;;;;;5053076;28;20500;-67
2022/08/09 03:28:58;;;;;;;6.22;4.65;;;15.50;99.90;;;;;;5042225;28;20375;-66
2022/08/09 03:31:25;;;;;;;7.22;4.90;;;15.60;99.90;;;;;;5053117;28;20473;-67
2022/08/09 03:33:51;;;;;;;5.40;4.32;;;15.60;99.90;;;;;;5053224;28;20025;-67
2022/08/09 03:36:17;;;;;;;8.38;4.88;;;15.70;99.90;;;;;;5052224;28;20020;-67
2022/08/09 03:38:43;;;;;;;4.95;4.32;;;15.60;99.90;;;;;;5052518;28;20377;-67
2022/08/09 03:41:13;;;;;;;7.78;5.47;;;15.50;99.90;;;;;;5052820;28;20104;-66
2022/08/09 03:43:39;;;;;;;7.50;5.32;;;15.50;99.90;;;;;;5037347;28;20021;-67
2022/08/09 03:46:05;;;;;;;9.25;5.88;;;15.50;99.90;;;;;;5052565;28;20433;-68
2022/08/09 03:48:32;;;;;;;10.07;5.65;;;15.40;99.90;;;;;;5052103;28;20108;-67
2022/08/09 03:50:59;;;;;;;9.88;5.15;;;15.50;99.90;;;;;;5052376;28;20025;-67
2022/08/09 03:53:25;;;;;;;6.72;5.18;;;15.30;99.90;;;;;;5051986;28;20025;-67
2022/08/09 03:55:51;;;;;;;6.68;5.30;;;15.40;99.90;;;;;;5042413;28;20020;-67
2022/08/09 03:58:17;;;;;;;5.90;5.40;;;15.30;99.90;;;;;;5051972;28;20094;-67
2022/08/09 04:00:47;;;;;;;10.70;7.50;;;15.30;99.90;;;;;;5052194;28;20033;-67
2022/08/09 04:03:15;;;;;;;7.57;6.47;;;15.40;99.90;;;;;;5051948;28;20025;-67
2022/08/09 04:05:41;;;;;;;8.02;6.90;;;15.20;99.90;;;;;;5052288;28;20490;-67
2022/08/09 04:08:07;;;;;;;8.50;6.35;;;15.20;99.90;;;;;;5051591;28;20386;-67
2022/08/09 04:10:32;;;;;;;9.48;7.05;;;15.10;99.90;;;;;;5051903;28;20028;-67
2022/08/09 04:13:08;;;;;;;9.32;6.57;;;15.10;99.90;;;;;;5052041;28;20043;-67
2022/08/09 04:15:35;;;;;;;8.88;6.30;;;15.10;99.90;;;;;;5051806;28;20494;-67
2022/08/09 04:18:01;;;;;;;9.88;7.47;;;;;;;;;;5052099;28;20485;-67
2022/08/09 04:20:26;;;;;;;8.85;6.32;;;15.10;99.90;;;;;;5051666;28;20029;-67
2022/08/09 04:22:52;;;;;;;8.13;6.40;;;15.00;99.90;;;;;;5051628;28;20116;-67
2022/08/09 04:25:17;;;;;;;9.20;7.20;;;15.10;99.90;;;;;;5050603;28;20521;-67
2022/08/09 04:27:43;;;;;;;9.50;7.07;;;15.10;99.90;;;;;;5051982;28;20059;-67
2022/08/09 04:30:13;;;;;;;7.25;6.20;;;15.10;99.90;;;;;;5051748;28;20049;-67
2022/08/09 04:32:40;;;;;;;7.95;7.15;;;15.10;99.90;;;;;;5051936;28;20060;-67
2022/08/09 04:35:08;;;;;;;11.23;7.22;;;15.20;99.90;;;;;;5051918;28;20032;-67
2022/08/09 04:37:34;;;;;;;11.85;7.78;;;15.20;99.90;;;;;;5051275;28;20025;-67
2022/08/09 04:39:59;;;;;;;10.65;7.60;;;15.10;99.90;;;;;;5051715;28;20104;-67
2022/08/09 04:42:29;;;;;;;7.97;6.75;;;15.10;99.90;;;;;;5051620;28;20104;-67
2022/08/09 04:44:56;;;;;;;8.60;7.70;;;15.30;99.90;;;;;;5051219;28;20117;-67
2022/08/09 04:47:23;;;;;;;8.80;7.90;;;15.20;99.90;;;;;;5051451;28;20048;-67
2022/08/09 04:49:49;;;;;;;9.85;6.95;;;15.10;99.90;;;;;;5051714;28;20044;-67
2022/08/09 04:52:15;;;;;;;9.23;7.18;;;15.20;99.90;;;;;;5050972;28;20033;-67
2022/08/09 04:54:40;;;;;;;10.90;8.38;;;15.20;99.90;;;;;;5040873;28;20096;-67
2022/08/09 04:57:06;;;;;;;9.13;7.30;;;15.30;99.90;;;;;;5049843;28;20036;-67
2022/08/09 04:59:31;;;;;;;11.65;8.05;;;15.20;99.90;;;;;;5050954;28;20033;-66
2022/08/09 05:01:57;;;;;;;8.73;7.35;;;15.30;99.90;;;;;;5047245;28;20041;-67
2022/08/09 05:04:23;;;;;;;11.32;8.50;;;15.30;99.90;;;;;;5051042;28;20025;-67
2022/08/09 05:06:48;;;;;;;10.02;7.28;;;15.40;99.90;;;;;;5050787;28;20025;-67
2022/08/09 05:09:14;;;;;;;9.50;7.28;;;15.30;99.90;;;;;;5050855;28;20033;-67
2022/08/09 05:11:39;;;;;;;10.90;7.35;;;15.80;99.90;;;;;;5050878;28;20513;-67
2022/08/09 05:14:05;;;;;;;12.30;7.13;;;15.40;99.90;;;;;;5046869;28;20035;-66
2022/08/09 05:16:31;;;;;;;10.13;7.47;;;15.30;99.90;;;;;;5050830;28;20104;-67
2022/08/09 05:18:57;;;;;;;11.35;7.95;;;15.50;99.90;;;;;;5050296;28;20025;-67
2022/08/09 05:21:22;;;;;;;10.52;7.20;;;15.60;99.90;;;;;;5047645;28;20029;-67
2022/08/09 05:23:48;;;;;;;8.77;6.20;;;15.70;99.90;;;;;;5045509;28;20126;-67
2022/08/09 05:26:13;;;;;;;11.93;7.20;;;15.60;99.90;;;;;;5050567;28;20061;-67
2022/08/09 05:28:39;;;;;;;10.00;6.95;;;15.60;99.90;;;;;;5045494;28;20083;-68
2022/08/09 05:31:04;;;;;;;7.78;6.97;;;15.70;99.90;;;;;;5046470;28;20021;-67
2022/08/09 05:33:30;;;;;;;8.10;7.00;;;15.80;99.90;;;;;;5050408;28;20028;-68
2022/08/09 05:35:55;;;;;;;9.13;7.57;;;16.60;99.90;;;;;;5047868;28;20331;-67
2022/08/09 05:38:21;;;;;;;9.93;7.28;;;15.80;99.90;;;;;;5050577;28;20056;-67
2022/08/09 05:40:46;;;;;;;8.55;7.30;;;15.80;99.90;;;;;;5050960;28;20117;-67
2022/08/09 05:43:12;;;;;;;10.57;8.40;;;15.80;99.90;;;;;;5050129;28;20413;-67
2022/08/09 05:45:37;;;;;;;11.70;7.80;;;15.90;99.90;;;;;;5051345;28;20420;-68
2022/08/09 05:48:03;;;;;;;9.85;7.40;;;16.00;99.90;;;;;;5048969;28;20521;-68
2022/08/09 05:50:29;;;;;;;11.55;7.63;;;16.00;99.90;;;;;;5050599;28;20086;-68
2022/08/09 05:52:55;;;;;;;10.63;7.95;;;16.10;99.90;;;;;;5050480;28;20033;-67
2022/08/09 05:55:21;;;;;;;7.38;6.35;;;16.20;99.90;;;;;;5050290;28;20025;-67
2022/08/09 05:57:46;;;;;;;10.75;7.55;;;16.20;99.90;;;;;;5050537;28;20029;-69
2022/08/09 06:00:12;;;;;;;11.40;7.80;;;16.30;99.90;;;;;;5050095;28;20712;-68
2022/08/09 06:02:38;;;;;;;9.00;5.88;;;16.30;99.90;;;;;;5049739;28;20095;-68
2022/08/09 06:05:05;;;;;;;11.45;7.15;;;16.90;99.90;;;;;;5049533;28;20032;-67
2022/08/09 06:07:31;;;;;;;9.55;7.20;;;16.40;99.90;;;;;;5036760;28;20032;-68
2022/08/09 06:09:56;;;;;;;10.82;7.93;;;16.50;99.90;;;;;;5050369;28;20033;-67
2022/08/09 06:12:22;;;;;;;10.15;6.78;;;16.60;99.90;;;;;;5049944;28;20473;-68
2022/08/09 06:14:48;;;;;;;9.70;7.05;;;16.50;99.90;;;;;;5047703;28;20045;-68
2022/08/09 06:17:13;;;;;;;7.47;6.68;;;;;;;;;;5047294;28;20059;-67
2022/08/09 06:19:39;;;;;;;8.68;6.43;;;16.80;99.90;;;;;;5049803;28;20088;-67
2022/08/09 06:22:05;;;;;;;8.55;6.30;;;16.60;99.90;;;;;;5049681;28;20029;-68
2022/08/09 06:24:31;;;;;;;12.70;7.30;;;16.60;99.90;;;;;;5049380;28;20032;-67
2022/08/09 06:26:57;;;;;;;15.27;8.48;;;16.80;99.90;;;;;;5048917;28;20039;-68
2022/08/09 06:29:22;;;;;;;8.35;6.38;;;16.90;99.90;;;;;;5048392;28;20494;-68
2022/08/09 06:31:48;;;;;;;10.77;6.35;;;16.90;99.90;;;;;;5049639;28;20044;-67
2022/08/09 06:34:13;;;;;;;7.28;6.30;;;15.30;99.90;;;;;;5049144;28;20892;-68
2022/08/09 06:36:39;;;;;;;7.63;5.97;;;17.00;99.90;;;;;;5049108;28;20025;-68
2022/08/09 06:39:07;;;;;;;7.57;5.88;;;17.10;99.90;;;;;;5049087;28;20150;-67
2022/08/09 06:41:33;;;;;;;11.93;5.93;;;17.20;99.90;;;;;;5048756;28;20072;-68
2022/08/09 06:43:58;;;;;;;8.15;5.55;;;17.20;99.90;;;;;;5049826;28;20474;-68
2022/08/09 06:46:24;;;;;;;6.70;5.68;;;17.20;99.90;;;;;;5047792;28;20474;-67
2022/08/09 06:48:49;;;;;;;6.32;5.43;;;17.40;99.90;;;;;;5050235;28;20142;-67
2022/08/09 06:51:15;;;;;;;8.25;4.95;;;17.50;99.90;;;;;;5048002;28;20025;-68
2022/08/09 06:53:40;;;;;;;5.38;4.30;;;17.20;99.90;;;;;;5045570;28;20132;-68
2022/08/09 06:56:07;;;;;;;5.40;4.13;;;17.60;99.90;;;;;;5043825;28;20021;-67
2022/08/09 06:58:33;;;;;;;4.88;4.25;;;17.70;99.90;;;;;;5044685;28;20033;-67
2022/08/09 07:00:59;;;;;;;6.53;4.50;;;17.80;99.90;;;;;;5044013;28;20052;-67
2022/08/09 07:03:25;;;;;;;5.78;3.45;;;17.90;99.90;;;;;;5048188;28;20059;-67
2022/08/09 07:05:51;;;;;;;7.63;4.85;;;17.90;99.90;;;;;;5046170;28;20036;-68
2022/08/09 07:08:16;;;;;;;6.85;4.22;;;18.00;99.90;;;;;;5042182;28;20033;-68
2022/08/09 07:10:42;;;;;;;9.18;4.10;;;18.10;99.90;;;;;;5048973;28;20064;-68
2022/08/09 07:13:08;;;;;;;6.43;3.72;;;18.20;99.90;;;;;;5047422;28;20029;-68
2022/08/09 07:15:33;;;;;;;5.05;3.10;;;18.20;99.90;;;;;;5043399;28;20032;-67
2022/08/09 07:17:59;;;;;;;4.15;2.42;;;18.30;99.90;;;;;;5048172;28;20040;-67
2022/08/09 07:20:24;;;;;;;3.65;2.78;;;18.50;99.90;;;;;;5043147;28;20083;-67
2022/08/09 07:22:51;;;;;;;5.03;2.28;;;18.40;99.90;;;;;;5049282;28;20087;-68
2022/08/09 07:25:17;;;;;;;2.95;2.67;;;18.50;99.90;;;;;;5040360;28;20021;-68
2022/08/09 07:27:42;;;;;;;3.58;2.35;;;18.70;99.90;;;;;;5048419;28;20055;-68
2022/08/09 07:30:12;;;;;;;3.63;2.60;;;18.80;99.90;;;;;;5047044;28;20069;-67
2022/08/09 07:32:38;;;;;;;4.25;2.65;;;18.90;99.90;;;;;;5048727;28;20489;-68
2022/08/09 07:35:06;;;;;;;3.88;2.70;;;19.00;99.90;;;;;;5047547;28;20033;-67
2022/08/09 07:37:32;;;;;;;4.57;2.47;;;19.10;99.90;;;;;;5046282;28;20474;-68
2022/08/09 07:39:57;;;;;;;5.78;2.55;;;19.90;99.90;;;;;;5048673;28;20028;-68
2022/08/09 07:42:23;;;;;;;3.92;2.03;;;19.20;99.90;;;;;;5048040;28;20036;-68
2022/08/09 07:44:49;;;;;;;2.83;2.17;;;19.30;99.90;;;;;;5043807;28;20033;-68
2022/08/09 07:47:15;;;;;;;3.50;1.92;;;19.40;99.90;;;;;;5046373;28;20123;-68
2022/08/09 07:49:41;;;;;;;5.68;2.25;;;19.70;99.90;;;;;;5048376;28;20033;-68
2022/08/09 07:52:07;;;;;;;2.60;1.80;;;19.70;99.70;;;;;;5048004;28;20032;-69
2022/08/09 07:54:33;;;;;;;3.90;1.70;;;19.70;99.50;;;;;;5048447;28;20117;-68
2022/08/09 07:56:58;;;;;;;1.73;1.63;;;19.90;99.00;;;;;;5047653;28;20029;-68
2022/08/09 07:59:24;;;;;;;5.43;1.80;;;19.90;98.80;;;;;;5051562;28;20462;-68
2022/08/09 08:01:50;;;;;;;4.25;1.67;;;19.90;98.70;;;;;;5052006;28;20414;-67
2022/08/09 08:04:16;;;;;;;3.72;1.27;;;20.00;98.70;;;;;;5051999;28;20031;-68
2022/08/09 08:06:41;;;;;;;2.80;1.05;;;20.20;98.50;;;;;;5051627;28;20025;-68
2022/08/09 08:09:07;;;;;;;3.30;1.38;;;20.30;98.30;;;;;;5048539;28;20053;-68
2022/08/09 08:11:32;;;;;;;5.30;1.30;;;21.30;98.30;;;;;;5052176;28;20029;-68
2022/08/09 08:13:58;;;;;;;2.22;1.27;;;20.40;97.80;;;;;;5051223;28;20036;-68
2022/08/09 08:16:23;;;;;;;2.70;1.27;;;20.50;97.50;;;;;;5050540;28;20392;-68
2022/08/09 08:18:49;;;;;;;2.67;1.20;;;20.60;97.20;;;;;;5044800;28;20063;-67
2022/08/09 08:21:15;;;;;;;1.88;1.10;;;20.80;97.10;;;;;;5051522;28;20500;-68
2022/08/09 08:23:40;;;;;;;1.73;1.20;;;20.80;96.40;;;;;;5051982;28;20469;-68
2022/08/09 08:26:06;;;;;;;2.40;1.10;;;21.00;95.60;;;;;;5044299;28;20029;-68
2022/08/09 08:28:31;;;;;;;1.67;0.77;;;21.00;95.10;;;;;;5048895;28;20473;-68
2022/08/09 08:30:57;;;;;;;2.63;0.80;;;21.00;94.80;;;;;;5050540;28;20025;-68
2022/08/09 08:33:23;;;;;;;1.33;0.73;;;21.20;94.60;;;;;;5051380;28;20466;-69
2022/08/09 08:35:48;;;;;;;2.38;0.70;;;21.10;94.20;;;;;;5051592;28;20021;-68
2022/08/09 08:38:14;;;;;;;2.53;0.70;;;21.20;93.80;;;;;;5049987;28;20032;-68
2022/08/09 08:40:39;;;;;;;2.08;0.73;;;21.20;93.70;;;;;;5050349;28;20040;-69
2022/08/09 08:43:05;;;;;;;2.70;1.25;;;21.30;93.40;;;;;;5049256;28;20071;-68
2022/08/09 08:45:33;;;;;;;2.17;0.80;;;21.30;92.70;;;;;;5051394;28;20025;-68
2022/08/09 08:47:59;;;;;;;2.13;0.73;;;21.30;93.00;;;;;;5050402;28;20500;-68
2022/08/09 08:50:24;;;;;;;1.25;0.60;;;21.30;92.70;;;;;;5050962;28;20045;-69
2022/08/09 08:52:51;;;;;;;0.93;0.57;;;21.50;92.50;;;;;;5049680;28;20075;-70
2022/08/09 08:55:17;;;;;;;1.17;0.80;;;21.50;92.60;;;;;;5050442;28;20025;-68
2022/08/09 08:57:43;;;;;;;1.52;0.60;;;22.40;92.60;;;;;;5049380;28;20498;-69
2022/08/09 09:00:09;;;;;;;1.60;0.63;;;22.90;92.20;;;;;;5050427;28;20039;-68
2022/08/09 09:02:36;;;;;;;1.67;0.68;;;21.60;91.10;;;;;;5049873;28;20037;-68
2022/08/09 09:05:02;;;;;;;2.15;0.75;;;21.90;91.50;;;;;;5049451;28;20092;-69
2022/08/09 09:07:29;;;;;;;2.20;0.57;;;21.80;91.20;;;;;;5048003;28;20029;-68
2022/08/09 09:09:57;;;;;;;1.05;0.68;;;21.90;91.20;;;;;;5046617;28;20603;-68
2022/08/09 09:12:27;;;;;;;0.93;0.65;;;21.90;91.10;;;;;;5049852;28;20017;-68
2022/08/09 09:14:53;;;;;;;1.33;0.52;;;22.00;90.90;;;;;;5041546;28;20439;-69
2022/08/09 09:17:19;;;;;;;1.92;0.70;;;22.80;90.80;;;;;;5055350;28;20539;-68
2022/08/09 09:19:44;;;;;;;8.23;1.20;;;22.10;90.50;;;;;;5050371;28;20025;-68
2022/08/09 09:22:13;;;;;;;2.25;0.70;;;22.10;90.40;;;;;;5050706;28;20029;-69
2022/08/09 09:24:43;;;;;;;1.15;0.68;;;22.20;90.20;;;;;;5049573;28;20031;-68
2022/08/09 09:27:15;;;;;;;1.40;0.75;;;22.40;90.00;;;;;;5049211;28;20489;-68
2022/08/09 09:29:42;;;;;;;2.05;0.82;;;23.80;90.10;;;;;;5045313;28;20033;-69
2022/08/09 09:32:08;;;;;;;2.45;0.80;;;22.40;89.50;;;;;;5045610;28;20024;-68
2022/08/09 09:34:35;;;;;;;2.60;0.60;;;22.50;88.30;;;;;;5047976;28;20040;-68
2022/08/09 09:37:02;;;;;;;1.77;0.90;;;22.30;88.90;;;;;;5046760;28;20449;-68
2022/08/09 09:39:29;;;;;;;2.22;0.50;;;22.30;89.10;;;;;;5046063;28;20037;-68
2022/08/09 09:41:56;;;;;;;3.40;1.00;;;22.30;89.30;;;;;;5049872;28;20438;-69
2022/08/09 09:44:31;;;;;;;4.07;1.10;;;22.50;89.20;;;;;;5040346;28;20536;-68
2022/08/09 09:47:05;;;;;;;1.02;0.70;;;22.50;86.80;;;;;;5047542;28;20071;-69
2022/08/09 09:49:31;;;;;;;2.92;0.60;;;22.70;88.90;;;;;;5032325;28;20272;-69
2022/08/09 09:52:07;;;;;;;2.80;0.70;;;22.60;87.70;;;;;;5048387;28;20525;-69
2022/08/09 09:54:36;;;;;;;2.35;0.50;;;22.60;86.40;;;;;;5049897;28;20029;-69
2022/08/09 09:57:13;;;;;;;4.03;0.60;;;22.70;87.80;;;;;;5048388;28;20104;-68
2022/08/09 09:59:39;;;;;;;1.95;0.68;;;22.70;88.10;;;;;;5050273;28;20012;-69
2022/08/09 10:02:05;;;;;;;2.42;0.70;;;22.80;86.60;;;;;;5049648;28;20124;-69
2022/08/09 10:04:31;;;;;;;1.15;0.57;;;22.80;86.00;;;;;;5049895;28;20028;-69
2022/08/09 10:06:57;;;;;;;1.33;0.70;;;22.90;86.00;;;;;;5048902;28;20025;-69
2022/08/09 10:09:22;;;;;;;1.38;0.65;;;22.80;85.70;;;;;;5048197;28;20025;-69
2022/08/09 10:11:56;;;;;;;2.95;0.38;;;23.60;86.30;;;;;;5046787;28;20028;-68
2022/08/09 10:14:27;;;;;;;2.15;0.90;;;22.90;86.40;;;;;;5032513;28;20025;-68
2022/08/09 10:16:53;;;;;;;3.35;0.98;;;23.00;83.60;;;;;;5048126;28;20032;-68
2022/08/09 10:19:19;;;;;;;0.70;0.32;;;23.00;84.00;;;;;;5048340;28;20078;-68
2022/08/09 10:21:47;;;;;;;0.95;0.50;;;23.00;83.90;;;;;;5050260;28;20123;-69
2022/08/09 10:24:14;;;;;;;0.47;0.45;;;23.10;84.60;;;;;;5048154;28;20108;-69
2022/08/09 10:26:40;;;;;;;0.80;0.50;;;23.20;84.00;;;;;;5048581;28;20090;-69
2022/08/09 10:29:05;;;;;;;1.80;0.60;;;23.30;83.80;;;;;;5049391;28;20510;-68
2022/08/09 10:31:31;;;;;;;2.22;0.57;;;23.20;83.70;;;;;;5046921;28;20025;-68
2022/08/09 10:33:57;;;;;;;1.98;0.57;;;23.30;83.10;;;;;;5043378;28;20087;-68
2022/08/09 10:36:23;;;;;;;1.35;0.65;;;24.50;82.50;;;;;;5048603;28;20048;-68
2022/08/09 10:38:49;;;;;;;1.55;0.60;;;23.40;81.40;;;;;;5049367;28;20096;-68
2022/08/09 10:41:16;;;;;;;1.17;0.70;;;23.70;80.90;;;;;;5057093;28;20517;-68
2022/08/09 10:43:46;;;;;;;0.98;0.60;;;23.30;80.90;;;;;;5035355;28;20060;-69
2022/08/09 10:46:46;;;;;;;4.68;0.60;;;23.30;81.20;;;;;;5048387;28;20466;-68
2022/08/09 10:49:44;;;;;;;1.33;0.50;;;23.40;80.10;;;;;;5038507;28;20393;-68
2022/08/09 10:52:34;;;;;;;2.95;0.40;;;23.50;80.20;;;;;;5052034;28;20081;-69
2022/08/09 10:55:23;;;;;;;1.13;0.30;;;23.60;79.00;;;;;;5048766;28;20071;-69
2022/08/09 10:57:49;;;;;;;2.60;0.45;;;23.70;79.30;;;;;;5046958;28;20543;-68
2022/08/09 11:00:34;;;;;;;2.38;0.82;;;23.70;80.00;;;;;;5048307;28;20029;-68
2022/08/09 11:03:01;;;;;;;1.75;0.50;;;23.70;78.90;;;;;;5048664;28;20048;-68
2022/08/09 11:05:27;;;;;;;2.30;0.55;;;23.70;79.90;;;;;;5048245;28;20020;-69
2022/08/09 11:07:53;;;;;;;1.70;0.47;;;23.80;79.70;;;;;;5048168;28;20500;-68
2022/08/09 11:10:40;;;;;;;1.60;0.60;;;23.70;79.30;;;;;;5048553;28;20087;-68
2022/08/09 11:13:16;;;;;;;1.35;0.40;;;23.60;78.70;;;;;;5049137;28;20025;-68
2022/08/09 11:15:42;;;;;;;2.20;0.73;;;23.60;80.60;;;;;;5048095;28;20719;-68
2022/08/09 11:18:11;;;;;;;0.57;0.45;;;23.70;79.80;;;;;;5047978;28;20024;-68
2022/08/09 11:20:48;;;;;;;2.58;0.65;;;23.80;79.90;;;;;;5048863;28;20071;-68
2022/08/09 11:23:14;;;;;;;1.50;0.50;;;24.00;79.60;;;;;;5044197;28;20674;-68
2022/08/09 11:25:43;;;;;;;1.77;0.40;;;24.00;79.40;;;;;;5040206;28;20038;-68
2022/08/09 11:28:30;;;;;;;1.48;0.57;;;23.90;79.50;;;;;;5042039;28;20028;-69
2022/08/09 11:30:56;;;;;;;0.88;0.50;;;24.00;79.80;;;;;;5045960;28;20087;-68
2022/08/09 11:33:37;;;;;;;1.67;0.95;;;23.90;79.20;;;;;;5052586;28;20025;-67
2022/08/09 11:36:02;;;;;;;4.40;0.47;;;24.30;80.20;;;;;;5051489;28;20043;-67
2022/08/09 11:38:33;;;;;;;1.55;0.43;;;24.00;79.20;;;;;;5051176;28;20138;-67
2022/08/09 11:41:28;;;;;;;0.77;0.40;;;25.20;79.80;;;;;;5050450;28;20021;-67
2022/08/09 11:43:55;;;;;;;0.75;0.50;;;24.10;77.50;;;;;;5049404;28;20026;-67
2022/08/09 11:46:21;;;;;;;1.20;0.60;;;24.10;78.70;;;;;;5049901;28;20029;-67
2022/08/09 11:48:56;;;;;;;1.23;0.73;;;24.20;78.30;;;;;;5057699;28;20029;-67
2022/08/09 11:51:26;;;;;;;0.63;0.40;;;24.00;79.20;;;;;;5051932;28;20536;-67
2022/08/09 11:54:11;;;;;;;1.55;0.30;;;24.70;79.00;;;;;;5052745;28;20028;-67
2022/08/09 11:56:37;;;;;;;1.17;0.35;;;24.20;79.30;;;;;;5046343;28;20108;-68
2022/08/09 11:59:04;;;;;;;0.77;0.60;;;25.10;77.90;;;;;;5040845;28;20428;-67
2022/08/09 12:01:50;;;;;;;0.50;0.20;;;24.50;76.80;;;;;;5051166;28;20465;-67
2022/08/09 12:04:16;;;;;;;0.50;0.32;;;25.50;78.20;;;;;;5039197;28;20397;-67
2022/08/09 12:06:51;;;;;;;0.80;0.45;;;24.60;76.10;;;;;;5048248;28;20710;-66
2022/08/09 12:09:29;;;;;;;0.95;0.47;;;24.40;76.80;;;;;;5045558;28;20048;-67
2022/08/09 12:12:01;;;;;;;1.48;0.50;;;24.50;74.60;;;;;;5046590;28;20432;-68
2022/08/09 12:14:32;;;;;;;1.38;0.47;;;24.90;76.50;;;;;;5052036;28;20071;-68
2022/08/09 12:16:58;;;;;;;0.52;0.32;;;24.60;76.40;;;;;;5050972;28;20023;-69
2022/08/09 12:19:29;;;;;;;0.80;0.40;;;24.30;75.50;;;;;;5051713;28;20389;-68
2022/08/09 12:21:59;;;;;;;1.95;0.45;;;24.60;75.70;;;;;;5047212;28;20079;-68
2022/08/09 12:24:25;;;;;;;1.15;0.50;;;24.60;75.90;;;;;;5051670;28;20017;-68
2022/08/09 12:26:55;;;;;;;2.55;0.47;;;24.90;75.40;;;;;;5050778;28;20021;-68
2022/08/09 12:29:23;;;;;;;1.85;0.40;;;24.60;75.10;;;;;;5051799;28;20059;-67
2022/08/09 12:31:58;;;;;;;0.30;0.25;;;24.60;75.00;;;;;;5050916;28;20108;-68
2022/08/09 12:34:50;;;;;;;1.75;0.40;;;24.60;74.00;;;;;;5051434;28;20060;-68
2022/08/09 12:37:16;;;;;;;0.40;0.30;;;25.90;75.30;;;;;;5048468;28;20041;-67
2022/08/09 12:39:41;;;;;;;2.47;0.40;;;25.60;74.00;;;;;;5051656;28;20021;-67
2022/08/09 12:42:13;;;;;;;0.85;0.40;;;24.70;88.50;;;;;;5048312;28;20557;-67
2022/08/09 12:44:39;;;;;;;1.35;0.30;;;24.90;72.60;;;;;;5047446;28;20104;-68
2022/08/09 12:47:06;;;;;;;1.17;0.60;;;25.00;72.20;;;;;;5050922;28;20021;-68
2022/08/09 12:49:33;;;;;;;0.47;0.40;;;24.80;72.60;;;;;;5050541;28;20047;-68
2022/08/09 12:51:59;;;;;;;1.45;0.38;;;26.00;73.40;;;;;;5050957;28;20017;-68
2022/08/09 12:54:25;;;;;;;3.17;0.73;;;24.80;72.40;;;;;;5050008;28;20031;-68